Time;durP1;ratioP1;P1;durP2;ratioP2;P2;SDS_P1;SDS_P2;PMS_P1;PMS_P2;Temp;Humidity;BMP_temperature;BMP_pressure;BME280_temperature;BME280_humidity;BME280_pressure;Samples;Min_cycle;Max_cycle;Signal;HPM_P1;HPM_P2
2022/06/26 00:01:12;;;;;;;;;;;21.40;99.90;;;;;;4593121;19;19911;-37
2022/06/26 00:02:43;;;;;;;;;;;21.30;99.90;;;;;;4593252;19;19919;-39
2022/06/26 00:04:14;;;;;;;;;;;21.30;99.90;;;;;;4593724;19;20330;-35
2022/06/26 00:05:45;;;;;;;;;;;21.30;99.90;;;;;;4593178;19;19929;-37
2022/06/26 00:07:16;;;;;;;;;;;21.30;99.90;;;;;;4592158;19;19972;-39
2022/06/26 00:08:47;;;;;;;;;;;21.30;99.90;;;;;;4591808;19;19926;-39
2022/06/26 00:10:18;;;;;;;;;;;21.30;99.90;;;;;;4592835;19;19915;-36
2022/06/26 00:11:49;;;;;;;;;;;21.30;99.90;;;;;;4593369;19;19915;-41
2022/06/26 00:13:20;;;;;;;;;;;21.30;99.90;;;;;;4593029;19;19914;-38
2022/06/26 00:14:51;;;;;;;;;;;21.30;99.90;;;;;;4590875;19;19923;-37
2022/06/26 00:16:22;;;;;;;;;;;21.40;99.90;;;;;;4591808;19;19925;-42
2022/06/26 00:17:53;;;;;;;;;;;21.40;99.90;;;;;;4593296;19;19915;-38
2022/06/26 00:19:24;;;;;;;;;;;21.30;99.90;;;;;;4593202;19;19922;-40
2022/06/26 00:20:55;;;;;;;;;;;21.30;99.90;;;;;;4591052;19;19960;-37
2022/06/26 00:22:26;;;;;;;;;;;21.40;99.90;;;;;;4592625;19;20337;-39
2022/06/26 00:23:57;;;;;;;;;;;21.30;99.90;;;;;;4592651;19;19943;-36
2022/06/26 00:25:28;;;;;;;;;;;21.40;99.90;;;;;;4592872;19;19974;-38
2022/06/26 00:26:59;;;;;;;;;;;21.40;99.90;;;;;;4592439;19;19947;-36
2022/06/26 00:28:31;;;;;;;;;;;21.30;99.90;;;;;;4592148;19;19935;-39
2022/06/26 00:30:02;;;;;;;;;;;21.40;99.90;;;;;;4592728;19;19935;-40
2022/06/26 00:31:33;;;;;;;;;;;21.40;99.90;;;;;;4592910;19;20244;-39
2022/06/26 00:33:03;;;;;;;;;;;21.40;99.90;;;;;;4592497;19;19918;-39
2022/06/26 00:34:35;;;;;;;;;;;21.30;99.90;;;;;;4592724;19;19915;-38
2022/06/26 00:36:05;;;;;;;;;;;21.30;99.90;;;;;;4592951;19;19911;-35
2022/06/26 00:37:36;;;;;;;;;;;21.30;99.90;;;;;;4592565;19;19962;-37
2022/06/26 00:39:07;;;;;;;;;;;21.30;99.90;;;;;;4592693;19;19931;-39
2022/06/26 00:40:42;;;;;;;;;;;21.30;99.90;;;;;;4592397;19;20334;-36
2022/06/26 00:42:13;;;;;;;;;;;21.30;99.90;;;;;;4592575;19;19924;-34
2022/06/26 00:43:44;;;;;;;;;;;21.30;99.90;;;;;;4592448;19;20265;-39
2022/06/26 00:45:15;;;;;;;;;;;21.30;99.90;;;;;;4592480;19;20245;-33
2022/06/26 00:46:46;;;;;;;;;;;21.30;99.90;;;;;;4592324;19;19923;-35
2022/06/26 00:48:17;;;;;;;;;;;21.30;99.90;;;;;;4591803;19;19915;-37
2022/06/26 00:49:48;;;;;;;;;;;21.20;99.90;;;;;;4589568;19;20278;-38
2022/06/26 00:51:19;;;;;;;;;;;21.30;99.90;;;;;;4591565;19;19925;-35
2022/06/26 00:52:51;;;;;;;;;;;21.20;99.90;;;;;;4592783;19;19974;-42
2022/06/26 00:54:23;;;;;;;;;;;21.20;99.90;;;;;;4591166;19;19942;-38
2022/06/26 00:55:54;;;;;;;;;;;21.20;99.90;;;;;;4591609;19;19931;-40
2022/06/26 00:57:26;;;;;;;;;;;21.20;99.90;;;;;;4592634;19;19915;-34
2022/06/26 00:58:57;;;;;;;;;;;21.20;99.90;;;;;;4589754;19;19922;-35
2022/06/26 01:00:28;;;;;;;;;;;21.20;99.90;;;;;;4591328;19;19911;-35
2022/06/26 01:01:58;;;;;;;;;;;21.20;99.90;;;;;;4591594;19;19915;-39
2022/06/26 01:03:30;;;;;;;;;;;21.20;99.90;;;;;;4591997;19;19922;-40
2022/06/26 01:05:01;;;;;;;;;;;21.20;99.90;;;;;;4592414;19;19928;-42
2022/06/26 01:06:32;;;;;;;;;;;21.20;99.90;;;;;;4591545;19;19933;-34
2022/06/26 01:08:03;;;;;;;;;;;21.20;99.90;;;;;;4591784;19;19919;-40
2022/06/26 01:09:34;;;;;;;;;;;21.10;99.90;;;;;;4592224;19;19921;-34
2022/06/26 01:11:17;;;;;;;;;;;21.10;99.90;;;;;;4592285;19;19996;-38
2022/06/26 01:12:48;;;;;;;;;;;21.10;99.90;;;;;;4590545;19;19922;-36
2022/06/26 01:14:19;;;;;;;;;;;21.10;99.90;;;;;;4590403;19;19982;-38
2022/06/26 01:15:51;;;;;;;;;;;21.10;99.90;;;;;;4591477;19;20369;-37
2022/06/26 01:17:22;;;;;;;;;;;21.10;99.90;;;;;;4592443;19;19910;-38
2022/06/26 01:18:53;;;;;;;;;;;21.10;99.90;;;;;;4591442;19;19915;-38
2022/06/26 01:20:24;;;;;;;;;;;21.10;99.90;;;;;;4591596;19;20334;-40
2022/06/26 01:21:55;;;;;;;;;;;21.10;99.90;;;;;;4592017;19;19945;-37
2022/06/26 01:23:26;;;;;;;;;;;21.10;99.90;;;;;;4592064;19;19970;-42
2022/06/26 01:24:57;;;;;;;;;;;21.10;99.90;;;;;;4591377;19;19911;-42
2022/06/26 01:26:30;;;;;;;;;;;21.10;99.90;;;;;;4591825;19;19917;-36
2022/06/26 01:28:00;;;;;;;;;;;21.00;99.90;;;;;;4591532;19;19919;-34
2022/06/26 01:29:32;;;;;;;;;;;21.00;99.90;;;;;;4591076;19;19923;-39
2022/06/26 01:31:02;;;;;;;;;;;21.10;99.90;;;;;;4591060;19;19915;-37
2022/06/26 01:32:33;;;;;;;;;;;21.00;99.90;;;;;;4590959;19;19978;-37
2022/06/26 01:34:08;;;;;;;;;;;21.10;99.90;;;;;;4591953;19;20321;-36
2022/06/26 01:35:40;;;;;;;;;;;21.00;99.90;;;;;;4591105;19;19938;-36
2022/06/26 01:37:10;;;;;;;;;;;21.00;99.90;;;;;;4591248;19;19918;-36
2022/06/26 01:38:41;;;;;;;;;;;21.00;99.90;;;;;;4591236;19;19926;-39
2022/06/26 01:40:12;;;;;;;;;;;21.00;99.90;;;;;;4591680;19;19918;-34
2022/06/26 01:41:44;;;;;;;;;;;21.00;99.90;;;;;;4588688;19;19923;-36
2022/06/26 01:43:16;;;;;;;;;;;21.00;99.90;;;;;;4590860;19;19918;-36
2022/06/26 01:44:46;;;;;;;;;;;21.00;99.90;;;;;;4591279;19;19922;-36
2022/06/26 01:46:17;;;;;;;;;;;21.00;99.90;;;;;;4591364;19;19919;-40
2022/06/26 01:47:49;;;;;;;;;;;20.70;99.90;;;;;;4590930;19;19927;-35
2022/06/26 01:49:23;;;;;;;;;;;20.10;99.90;;;;;;4590442;19;19931;-35
2022/06/26 01:50:54;;;;;;;;;;;19.70;99.90;;;;;;4591231;19;20326;-39
2022/06/26 01:52:25;;;;;;;;;;;19.40;99.90;;;;;;4590887;19;19929;-36
2022/06/26 01:53:56;;;;;;;;;;;19.20;99.90;;;;;;4590557;19;19974;-36
2022/06/26 01:55:27;;;;;;;;;;;19.00;99.90;;;;;;4590697;19;19923;-39
2022/06/26 01:56:58;;;;;;;;;;;18.90;99.90;;;;;;4591253;19;19922;-38
2022/06/26 01:58:29;;;;;;;;;;;18.90;99.90;;;;;;4590801;19;19910;-36
2022/06/26 02:00:00;;;;;;;;;;;18.80;99.90;;;;;;4590611;19;19919;-36
2022/06/26 02:01:32;;;;;;;;;;;18.80;99.90;;;;;;4589718;19;19919;-35
2022/06/26 02:03:04;;;;;;;;;;;18.70;99.90;;;;;;4590446;19;19919;-33
2022/06/26 02:04:34;;;;;;;;;;;18.70;99.90;;;;;;4592431;19;19914;-39
2022/06/26 02:06:06;;;;;;;;;;;18.80;99.90;;;;;;4590752;19;19945;-35
2022/06/26 02:07:36;;;;;;;;;;;18.90;99.90;;;;;;4591342;19;20272;-41
2022/06/26 02:13:35;;;;;;;;;;;19.10;99.90;;;;;;4589570;19;19915;-34
2022/06/26 02:14:51;;;;;;;;;;;19.10;99.90;;;;;;4588466;19;19926;-37
2022/06/26 02:16:23;;;;;;;;;;;19.20;99.90;;;;;;4588709;19;19914;-42
2022/06/26 02:17:54;;;;;;;;;;;19.20;99.90;;;;;;4588943;19;19970;-35
2022/06/26 02:19:25;;;;;;;;;;;19.20;99.90;;;;;;4588337;19;19919;-39
2022/06/26 02:20:56;;;;;;;;;;;19.20;99.90;;;;;;4588081;19;19926;-35
2022/06/26 02:22:27;;;;;;;;;;;19.20;99.90;;;;;;4588812;19;20333;-36
2022/06/26 02:24:01;;;;;;;;;;;19.20;99.90;;;;;;4588355;19;19926;-35
2022/06/26 02:25:31;;;;;;;;;;;19.20;99.90;;;;;;4588168;19;19918;-36
2022/06/26 02:27:02;;;;;;;;;;;19.20;99.90;;;;;;4588019;19;19914;-33
2022/06/26 02:28:34;;;;;;;;;;;19.20;99.90;;;;;;4587647;19;19915;-38
2022/06/26 02:30:05;;;;;;;;;;;19.20;99.90;;;;;;4588745;19;19931;-34
2022/06/26 02:31:37;;;;;;;;;;;19.20;99.90;;;;;;4588142;19;19978;-38
2022/06/26 02:33:08;;;;;;;;;;;19.20;99.90;;;;;;4587990;19;19918;-37
2022/06/26 02:34:39;;;;;;;;;;;19.20;99.90;;;;;;4588179;19;19918;-39
2022/06/26 02:36:10;;;;;;;;;;;19.20;99.90;;;;;;4587756;19;19995;-34
2022/06/26 02:37:41;;;;;;;;;;;19.40;99.90;;;;;;4587827;19;19936;-39
2022/06/26 02:39:12;;;;;;;;;;;19.70;99.90;;;;;;4588574;19;20284;-38
2022/06/26 02:40:44;;;;;;;;;;;19.90;99.90;;;;;;4588289;19;19911;-34
2022/06/26 02:42:15;;;;;;;;;;;20.10;99.90;;;;;;4587925;19;19922;-36
2022/06/26 02:43:46;;;;;;;;;;;20.30;99.90;;;;;;4589285;19;19936;-36
2022/06/26 02:45:17;;;;;;;;;;;20.40;99.90;;;;;;4592928;19;19922;-41
2022/06/26 02:46:48;;;;;;;;;;;20.50;99.90;;;;;;4592978;19;20026;-35
2022/06/26 02:48:19;;;;;;;;;;;20.60;99.90;;;;;;4592008;19;20044;-35
2022/06/26 02:49:50;;;;;;;;;;;20.70;99.90;;;;;;4592526;19;20391;-34
2022/06/26 02:51:21;;;;;;;;;;;20.60;99.90;;;;;;4594254;19;19915;-38
2022/06/26 02:52:52;;;;;;;;;;;20.10;99.90;;;;;;4594760;19;19910;-35
2022/06/26 02:54:23;;;;;;;;;;;19.90;99.90;;;;;;4593065;19;20382;-42
2022/06/26 02:55:54;;;;;;;;;;;19.70;99.90;;;;;;4592195;19;19943;-40
2022/06/26 02:57:25;;;;;;;;;;;19.50;99.90;;;;;;4594051;19;19919;-34
2022/06/26 02:58:56;;;;;;;;;;;18.30;99.90;;;;;;4594249;19;19919;-39
2022/06/26 03:00:27;;;;;;;;;;;17.70;99.90;;;;;;4594446;19;20256;-36
2022/06/26 03:01:58;;;;;;;;;;;17.40;99.90;;;;;;4594423;19;19917;-34
2022/06/26 03:03:29;;;;;;;;;;;17.30;99.90;;;;;;4594922;19;19923;-38
2022/06/26 03:05:00;;;;;;;;;;;17.30;99.90;;;;;;4594209;19;19962;-40
2022/06/26 03:06:32;;;;;;;;;;;17.30;99.90;;;;;;4594540;19;19978;-36
2022/06/26 03:08:03;;;;;;;;;;;17.30;99.90;;;;;;4594485;19;20351;-34
2022/06/26 03:09:34;;;;;;;;;;;17.30;99.90;;;;;;4594185;19;19970;-37
2022/06/26 03:11:04;;;;;;;;;;;17.30;99.90;;;;;;4594343;19;19935;-36
2022/06/26 03:12:42;;;;;;;;;;;17.30;99.90;;;;;;4594453;19;20010;-36
2022/06/26 03:14:13;;;;;;;;;;;17.30;99.90;;;;;;4594843;19;19922;-42
2022/06/26 03:15:44;;;;;;;;;;;17.30;99.90;;;;;;4593905;19;19922;-35
2022/06/26 03:17:15;;;;;;;;;;;17.30;99.90;;;;;;4593972;19;19966;-39
2022/06/26 03:18:46;;;;;;;;;;;17.30;99.90;;;;;;4594552;19;19918;-38
2022/06/26 03:20:18;;;;;;;;;;;17.40;99.90;;;;;;4594220;19;19919;-38
2022/06/26 03:21:49;;;;;;;;;;;17.40;99.90;;;;;;4593845;19;20341;-40
2022/06/26 03:23:20;;;;;;;;;;;17.30;99.90;;;;;;4594173;19;19910;-38
2022/06/26 03:24:51;;;;;;;;;;;17.40;99.90;;;;;;4594145;19;19914;-37
2022/06/26 03:26:22;;;;;;;;;;;17.40;99.90;;;;;;4594157;19;19925;-36
2022/06/26 03:27:53;;;;;;;;;;;17.40;99.90;;;;;;4592853;19;19984;-36
2022/06/26 03:29:24;;;;;;;;;;;17.40;99.90;;;;;;4591968;19;19919;-33
2022/06/26 03:30:56;;;;;;;;;;;17.40;99.90;;;;;;4594462;19;19911;-36
2022/06/26 03:32:26;;;;;;;;;;;17.40;99.90;;;;;;4593982;19;19918;-33
2022/06/26 03:33:57;;;;;;;;;;;17.40;99.90;;;;;;4593683;19;19915;-36
2022/06/26 03:35:28;;;;;;;;;;;17.40;99.90;;;;;;4594018;19;19915;-37
2022/06/26 03:37:01;;;;;;;;;;;17.50;99.90;;;;;;4594273;19;20343;-39
2022/06/26 03:38:32;;;;;;;;;;;17.40;99.90;;;;;;4593551;19;19971;-35
2022/06/26 03:40:03;;;;;;;;;;;17.50;99.90;;;;;;4594210;19;19918;-37
2022/06/26 03:41:34;;;;;;;;;;;17.50;99.90;;;;;;4593873;19;19910;-33
2022/06/26 03:43:09;;;;;;;;;;;17.50;99.90;;;;;;4594505;19;19919;-36
2022/06/26 03:44:40;;;;;;;;;;;17.50;99.90;;;;;;4593452;19;19910;-39
2022/06/26 03:46:11;;;;;;;;;;;17.60;99.90;;;;;;4593462;19;19931;-35
2022/06/26 03:47:42;;;;;;;;;;;17.50;99.90;;;;;;4593570;19;19986;-35
2022/06/26 03:49:13;;;;;;;;;;;17.60;99.90;;;;;;4592078;19;19914;-33
2022/06/26 03:50:44;;;;;;;;;;;17.60;99.90;;;;;;4593540;19;20344;-38
2022/06/26 03:52:14;;;;;;;;;;;17.60;99.90;;;;;;4593537;19;19979;-36
2022/06/26 03:53:45;;;;;;;;;;;17.70;99.90;;;;;;4592917;19;19931;-37
2022/06/26 03:55:17;;;;;;;;;;;17.70;99.90;;;;;;4591293;19;19926;-35
2022/06/26 03:56:48;;;;;;;;;;;17.70;99.90;;;;;;4593071;19;19915;-38
2022/06/26 03:58:19;;;;;;;;;;;17.80;99.90;;;;;;4592985;19;19951;-40
2022/06/26 03:59:50;;;;;;;;;;;17.80;99.90;;;;;;4592545;19;19918;-36
2022/06/26 04:01:21;;;;;;;;;;;17.80;99.90;;;;;;4592827;19;19927;-39
2022/06/26 04:02:52;;;;;;;;;;;17.90;99.90;;;;;;4593583;19;20329;-37
2022/06/26 04:04:23;;;;;;;;;;;17.90;99.90;;;;;;4593715;19;19922;-37
2022/06/26 04:05:54;;;;;;;;;;;17.90;99.90;;;;;;4593190;19;19915;-40
2022/06/26 04:07:25;;;;;;;;;;;17.90;99.90;;;;;;4591967;19;19923;-38
2022/06/26 04:08:56;;;;;;;;;;;18.00;99.90;;;;;;4592276;19;19918;-36
2022/06/26 04:10:27;;;;;;;;;;;18.00;99.90;;;;;;4593655;19;19915;-35
2022/06/26 04:11:58;;;;;;;;;;;18.10;99.90;;;;;;4592967;19;19926;-36
2022/06/26 04:13:30;;;;;;;;;;;18.10;99.90;;;;;;4592665;19;19918;-40
2022/06/26 04:15:00;;;;;;;;;;;18.10;99.90;;;;;;4592882;19;19993;-36
2022/06/26 04:16:31;;;;;;;;;;;18.10;99.90;;;;;;4593520;19;19919;-38
2022/06/26 04:18:02;;;;;;;;;;;18.10;99.90;;;;;;4592809;19;19943;-35
2022/06/26 04:19:34;;;;;;;;;;;18.10;99.90;;;;;;4593004;19;19919;-39
2022/06/26 04:21:05;;;;;;;;;;;18.20;99.90;;;;;;4592283;19;19954;-36
2022/06/26 04:22:36;;;;;;;;;;;18.10;99.90;;;;;;4592157;19;20230;-36
2022/06/26 04:24:07;;;;;;;;;;;18.20;99.90;;;;;;4592178;19;20006;-40
2022/06/26 04:25:38;;;;;;;;;;;18.20;99.90;;;;;;4593091;19;19919;-36
2022/06/26 04:27:09;;;;;;;;;;;18.30;99.90;;;;;;4593534;19;19921;-35
2022/06/26 04:28:40;;;;;;;;;;;18.30;99.90;;;;;;4591986;19;19929;-36
2022/06/26 04:30:11;;;;;;;;;;;18.30;99.90;;;;;;4592439;19;19936;-42
2022/06/26 04:31:42;;;;;;;;;;;18.30;99.90;;;;;;4592685;19;20318;-39
2022/06/26 04:33:13;;;;;;;;;;;18.30;99.90;;;;;;4592811;19;19926;-38
2022/06/26 04:34:44;;;;;;;;;;;18.30;99.90;;;;;;4592338;19;20330;-38
2022/06/26 04:36:15;;;;;;;;;;;18.40;99.90;;;;;;4592671;19;19941;-37
2022/06/26 04:37:46;;;;;;;;;;;18.40;99.90;;;;;;4592973;19;20331;-37
2022/06/26 04:39:17;;;;;;;;;;;18.40;99.90;;;;;;4592772;19;20310;-33
2022/06/26 04:40:48;;;;;;;;;;;18.40;99.90;;;;;;4592246;19;19915;-38
2022/06/26 04:42:19;;;;;;;;;;;18.50;99.90;;;;;;4592719;19;20341;-35
2022/06/26 04:43:50;;;;;;;;;;;18.50;99.90;;;;;;4592882;19;19922;-38
2022/06/26 04:45:21;;;;;;;;;;;18.50;99.90;;;;;;4592073;19;19914;-41
2022/06/26 04:46:52;;;;;;;;;;;18.50;99.90;;;;;;4592155;19;19918;-39
2022/06/26 04:48:25;;;;;;;;;;;18.50;99.90;;;;;;4592049;19;19926;-36
2022/06/26 04:49:57;;;;;;;;;;;18.50;99.90;;;;;;4592606;19;20034;-36
2022/06/26 04:51:28;;;;;;;;;;;18.50;99.90;;;;;;4592020;19;19926;-37
2022/06/26 04:52:59;;;;;;;;;;;18.60;99.90;;;;;;4592146;19;19917;-37
2022/06/26 04:54:30;;;;;;;;;;;18.60;99.90;;;;;;4590808;19;20331;-35
2022/06/26 04:56:01;;;;;;;;;;;18.60;99.90;;;;;;4590513;19;19982;-35
2022/06/26 04:57:32;;;;;;;;;;;18.60;99.90;;;;;;4591764;19;19914;-42
2022/06/26 04:59:03;;;;;;;;;;;18.60;99.90;;;;;;4592338;19;19915;-40
2022/06/26 05:00:34;;;;;;;;;;;18.70;99.90;;;;;;4592114;19;20322;-37
2022/06/26 05:02:05;;;;;;;;;;;18.70;99.90;;;;;;4592134;19;20278;-38
2022/06/26 05:03:36;;;;;;;;;;;18.70;99.90;;;;;;4592034;19;19919;-38
2022/06/26 05:05:07;;;;;;;;;;;18.70;99.90;;;;;;4592334;19;19938;-36
2022/06/26 05:06:38;;;;;;;;;;;18.80;99.90;;;;;;4590995;19;19915;-37
2022/06/26 05:08:09;;;;;;;;;;;18.80;99.90;;;;;;4591630;19;19949;-35
2022/06/26 05:09:40;;;;;;;;;;;18.80;99.90;;;;;;4591428;19;19914;-41
2022/06/26 05:11:11;;;;;;;;;;;18.90;99.90;;;;;;4592048;19;19918;-36
2022/06/26 05:12:43;;;;;;;;;;;18.90;99.90;;;;;;4592062;19;19932;-38
2022/06/26 05:14:14;;;;;;;;;;;18.90;99.90;;;;;;4591642;19;19982;-39
2022/06/26 05:15:46;;;;;;;;;;;18.90;99.90;;;;;;4591762;19;19914;-38
2022/06/26 05:17:17;;;;;;;;;;;18.90;99.90;;;;;;4591792;19;19921;-36
2022/06/26 05:18:48;;;;;;;;;;;19.00;99.90;;;;;;4591846;19;20329;-34
2022/06/26 05:20:19;;;;;;;;;;;18.90;99.90;;;;;;4591643;19;19931;-34
2022/06/26 05:21:52;;;;;;;;;;;19.00;99.90;;;;;;4590710;19;20341;-37
2022/06/26 05:23:24;;;;;;;;;;;19.00;99.90;;;;;;4591293;19;19915;-38
2022/06/26 05:24:55;;;;;;;;;;;19.10;99.90;;;;;;4591258;19;19978;-34
2022/06/26 05:26:26;;;;;;;;;;;19.10;99.90;;;;;;4591502;19;19919;-34
2022/06/26 05:27:57;;;;;;;;;;;19.10;99.90;;;;;;4590226;19;19921;-35
2022/06/26 05:29:28;;;;;;;;;;;19.10;99.90;;;;;;4590769;19;19911;-33
2022/06/26 05:30:59;;;;;;;;;;;19.10;99.90;;;;;;4591556;19;19922;-37
2022/06/26 05:32:30;;;;;;;;;;;19.10;99.90;;;;;;4591114;19;19955;-34
2022/06/26 05:34:01;;;;;;;;;;;19.10;99.90;;;;;;4591471;19;19922;-39
2022/06/26 05:35:32;;;;;;;;;;;19.10;99.90;;;;;;4591577;19;19918;-36
2022/06/26 05:37:03;;;;;;;;;;;19.10;99.90;;;;;;4591363;19;20266;-39
2022/06/26 05:38:35;;;;;;;;;;;19.20;99.90;;;;;;4591751;19;19915;-35
2022/06/26 05:40:06;;;;;;;;;;;19.20;99.90;;;;;;4591397;19;19974;-36
2022/06/26 05:41:37;;;;;;;;;;;19.20;99.90;;;;;;4590087;19;20010;-39
2022/06/26 05:43:08;;;;;;;;;;;19.30;99.90;;;;;;4590815;19;19933;-37
2022/06/26 05:44:39;;;;;;;;;;;19.30;99.90;;;;;;4591579;19;19957;-36
2022/06/26 05:46:10;;;;;;;;;;;19.30;99.90;;;;;;4591718;19;19914;-38
2022/06/26 05:47:41;;;;;;;;;;;19.30;99.90;;;;;;4591023;19;19919;-36
2022/06/26 05:49:12;;;;;;;;;;;19.40;99.90;;;;;;4590257;19;19914;-41
2022/06/26 05:50:43;;;;;;;;;;;19.30;99.90;;;;;;4591156;19;20332;-36
2022/06/26 05:52:14;;;;;;;;;;;19.40;99.90;;;;;;4591265;19;19919;-37
2022/06/26 05:53:45;;;;;;;;;;;19.40;99.90;;;;;;4590469;19;19919;-36
2022/06/26 05:55:16;;;;;;;;;;;19.40;99.90;;;;;;4589897;19;19981;-39
2022/06/26 05:56:47;;;;;;;;;;;19.50;99.90;;;;;;4590951;19;19932;-37
2022/06/26 05:58:18;;;;;;;;;;;19.50;99.90;;;;;;4591001;19;19910;-42
2022/06/26 05:59:49;;;;;;;;;;;19.50;99.90;;;;;;4590756;19;19932;-37
2022/06/26 06:01:20;;;;;;;;;;;19.50;99.90;;;;;;4591154;19;19990;-36
2022/06/26 06:02:51;;;;;;;;;;;19.50;99.90;;;;;;4591430;19;19982;-39
2022/06/26 06:04:22;;;;;;;;;;;19.50;99.90;;;;;;4590764;19;19915;-33
2022/06/26 06:05:52;;;;;;;;;;;19.50;99.90;;;;;;4591194;19;19923;-34
2022/06/26 06:07:23;;;;;;;;;;;19.50;99.90;;;;;;4590913;19;19928;-33
2022/06/26 06:08:55;;;;;;;;;;;19.60;99.90;;;;;;4590405;19;19906;-34
2022/06/26 06:10:25;;;;;;;;;;;19.60;99.90;;;;;;4589478;19;19911;-33
2022/06/26 06:11:56;;;;;;;;;;;19.70;99.90;;;;;;4590261;19;19919;-34
2022/06/26 06:13:27;;;;;;;;;;;19.70;99.90;;;;;;4590849;19;20329;-38
2022/06/26 06:14:59;;;;;;;;;;;19.70;99.90;;;;;;4591121;19;19928;-35
2022/06/26 06:16:30;;;;;;;;;;;19.70;99.90;;;;;;4590812;19;19919;-38
2022/06/26 06:18:01;;;;;;;;;;;19.70;99.90;;;;;;4590697;19;19940;-42
2022/06/26 06:19:31;;;;;;;;;;;19.70;99.90;;;;;;4595234;19;19910;-37
2022/06/26 06:21:03;;;;;;;;;;;19.80;99.90;;;;;;4595163;19;19907;-34
2022/06/26 06:22:34;;;;;;;;;;;19.80;99.90;;;;;;4595186;19;19926;-41
2022/06/26 06:24:05;;;;;;;;;;;19.90;99.90;;;;;;4595370;19;19926;-37
2022/06/26 06:25:36;;;;;;;;;;;19.90;99.90;;;;;;4595852;19;19911;-40
2022/06/26 06:27:07;;;;;;;;;;;20.00;99.90;;;;;;4594996;19;19998;-37
2022/06/26 06:28:38;;;;;;;;;;;19.90;99.90;;;;;;4594892;19;19919;-34
2022/06/26 06:30:09;;;;;;;;;;;20.00;99.90;;;;;;4595592;19;20252;-34
2022/06/26 06:31:40;;;;;;;;;;;19.90;99.90;;;;;;4595275;19;19915;-40
2022/06/26 06:33:11;;;;;;;;;;;19.90;99.90;;;;;;4595195;19;19919;-38
2022/06/26 06:34:42;;;;;;;;;;;20.00;99.90;;;;;;4595404;19;19918;-37
2022/06/26 06:36:13;;;;;;;;;;;19.90;99.90;;;;;;4595168;19;19918;-39
2022/06/26 06:37:44;;;;;;;;;;;19.90;99.90;;;;;;4594652;19;19922;-36
2022/06/26 06:39:15;;;;;;;;;;;20.00;99.90;;;;;;4594879;19;19974;-36
2022/06/26 06:40:46;;;;;;;;;;;20.00;99.90;;;;;;4595269;19;20254;-38
2022/06/26 06:42:17;;;;;;;;;;;20.00;99.90;;;;;;4595468;19;19940;-35
2022/06/26 06:43:48;;;;;;;;;;;20.10;99.90;;;;;;4594784;19;19914;-37
2022/06/26 06:45:19;;;;;;;;;;;20.10;99.90;;;;;;4595050;19;19989;-39
2022/06/26 06:46:50;;;;;;;;;;;20.10;99.90;;;;;;4594931;19;19910;-36
2022/06/26 06:48:24;;;;;;;;;;;20.10;99.90;;;;;;4594736;19;19919;-36
2022/06/26 06:49:55;;;;;;;;;;;20.10;99.90;;;;;;4594900;19;20326;-35
2022/06/26 06:51:26;;;;;;;;;;;20.10;99.90;;;;;;4595020;19;19956;-35
2022/06/26 06:52:57;;;;;;;;;;;20.20;99.90;;;;;;4594866;19;20031;-38
2022/06/26 06:54:28;;;;;;;;;;;20.10;99.90;;;;;;4593015;19;19926;-35
2022/06/26 06:55:59;;;;;;;;;;;20.20;99.90;;;;;;4593058;19;19923;-33
2022/06/26 06:57:30;;;;;;;;;;;20.20;99.90;;;;;;4594178;19;19926;-37
2022/06/26 06:59:02;;;;;;;;;;;20.20;99.90;;;;;;4594718;19;19919;-35
2022/06/26 07:00:32;;;;;;;;;;;20.20;99.90;;;;;;4595906;19;20330;-40
2022/06/26 07:02:03;;;;;;;;;;;20.20;99.90;;;;;;4595615;19;19919;-40
2022/06/26 07:03:35;;;;;;;;;;;20.20;99.90;;;;;;4594989;19;20307;-34
2022/06/26 07:05:06;;;;;;;;;;;20.20;99.90;;;;;;4596680;19;19922;-35
2022/06/26 07:06:37;;;;;;;;;;;20.20;99.90;;;;;;4594369;19;19918;-39
2022/06/26 07:08:08;;;;;;;;;;;20.20;99.90;;;;;;4594745;19;19922;-35
2022/06/26 07:09:39;;;;;;;;;;;20.20;99.90;;;;;;4592416;19;19923;-33
2022/06/26 07:11:10;;;;;;;;;;;20.30;99.90;;;;;;4525744;19;19922;-33
2022/06/26 07:12:49;;;;;;;;;;;20.30;99.90;;;;;;4593755;19;19918;-39
2022/06/26 07:14:20;;;;;;;;;;;20.30;99.90;;;;;;4592922;19;19949;-37
2022/06/26 07:15:51;;;;;;;;;;;20.40;99.90;;;;;;4592333;19;19970;-38
2022/06/26 07:17:22;;;;;;;;;;;20.40;99.90;;;;;;4592250;19;20334;-37
2022/06/26 07:18:54;;;;;;;;;;;20.40;99.90;;;;;;4594865;19;19929;-38
2022/06/26 07:20:24;;;;;;;;;;;20.40;99.90;;;;;;4594627;19;19974;-43
2022/06/26 07:21:56;;;;;;;;;;;20.40;99.90;;;;;;4594680;19;19996;-39
2022/06/26 07:23:26;;;;;;;;;;;20.40;99.90;;;;;;4593656;19;19919;-35
2022/06/26 07:24:57;;;;;;;;;;;20.40;99.90;;;;;;4593403;19;19943;-35
2022/06/26 07:26:29;;;;;;;;;;;20.50;99.90;;;;;;4592780;19;19929;-39
2022/06/26 07:28:00;;;;;;;;;;;20.50;99.90;;;;;;4592201;19;19995;-41
2022/06/26 07:29:31;;;;;;;;;;;20.60;99.90;;;;;;4589691;19;19915;-37
2022/06/26 07:31:02;;;;;;;;;;;20.60;99.90;;;;;;4592025;19;19918;-37
2022/06/26 07:32:32;;;;;;;;;;;20.60;99.90;;;;;;4595022;19;19915;-36
2022/06/26 07:34:12;;;;;;;;;;;20.60;99.90;;;;;;4594286;19;19915;-39
2022/06/26 07:35:43;;;;;;;;;;;20.60;99.90;;;;;;4594833;19;19927;-37
2022/06/26 07:37:15;;;;;;;;;;;20.60;99.90;;;;;;4593919;19;20365;-35
2022/06/26 07:38:45;;;;;;;;;;;20.70;99.90;;;;;;4593526;19;19966;-40
2022/06/26 07:40:17;;;;;;;;;;;20.70;99.90;;;;;;4591760;19;19922;-33
2022/06/26 07:41:48;;;;;;;;;;;20.70;99.90;;;;;;4592515;19;19925;-39
2022/06/26 07:43:19;;;;;;;;;;;20.80;99.90;;;;;;4592377;19;19915;-41
2022/06/26 07:44:50;;;;;;;;;;;20.80;99.90;;;;;;4592143;19;19949;-35
2022/06/26 07:46:21;;;;;;;;;;;20.80;99.90;;;;;;4591816;19;19974;-35
2022/06/26 07:47:52;;;;;;;;;;;20.80;99.90;;;;;;4594415;19;19922;-39
2022/06/26 07:49:23;;;;;;;;;;;20.80;99.90;;;;;;4592587;19;19922;-42
2022/06/26 07:50:54;;;;;;;;;;;20.80;99.90;;;;;;4594069;19;20309;-37
2022/06/26 07:52:25;;;;;;;;;;;20.90;99.90;;;;;;4593268;19;19947;-36
2022/06/26 07:53:56;;;;;;;;;;;21.00;99.90;;;;;;4591979;19;19915;-37
2022/06/26 07:55:27;;;;;;;;;;;21.00;99.90;;;;;;4593122;19;19943;-37
2022/06/26 07:56:58;;;;;;;;;;;21.00;99.90;;;;;;4592453;19;19957;-36
2022/06/26 07:58:29;;;;;;;;;;;21.00;99.90;;;;;;4592978;19;19955;-40
2022/06/26 08:00:00;;;;;;;;;;;21.00;99.90;;;;;;4592060;19;19915;-36
2022/06/26 08:01:31;;;;;;;;;;;21.10;99.90;;;;;;4591912;19;19915;-35
2022/06/26 08:03:03;;;;;;;;;;;21.10;99.90;;;;;;4591555;19;19922;-39
2022/06/26 08:04:34;;;;;;;;;;;21.10;99.90;;;;;;4594069;19;20330;-38
2022/06/26 08:06:05;;;;;;;;;;;21.10;99.90;;;;;;4594265;19;19927;-34
2022/06/26 08:07:36;;;;;;;;;;;21.10;99.90;;;;;;4593453;19;19925;-36
2022/06/26 08:09:07;;;;;;;;;;;21.10;99.90;;;;;;4591879;19;19918;-36
2022/06/26 08:10:38;;;;;;;;;;;21.20;99.90;;;;;;4593155;19;19970;-41
2022/06/26 08:12:09;;;;;;;;;;;21.20;99.90;;;;;;4592051;19;20604;-38
2022/06/26 08:13:40;;;;;;;;;;;21.20;99.90;;;;;;4592983;19;19923;-34
2022/06/26 08:15:11;;;;;;;;;;;21.20;99.90;;;;;;4593254;19;19939;-36
2022/06/26 08:16:42;;;;;;;;;;;21.30;99.90;;;;;;4591885;19;19914;-33
2022/06/26 08:18:13;;;;;;;;;;;21.20;99.90;;;;;;4593713;19;19978;-32
2022/06/26 08:19:44;;;;;;;;;;;21.30;99.90;;;;;;4593218;19;19970;-38
2022/06/26 08:23:05;;;;;;;;;;;21.40;99.90;;;;;;4593287;19;19925;-37
2022/06/26 08:24:38;;;;;;;;;;;21.30;99.90;;;;;;4592896;19;19923;-36
2022/06/26 08:26:09;;;;;;;;;;;21.20;99.90;;;;;;4593324;19;19953;-39
2022/06/26 08:27:40;;;;;;;;;;;21.30;99.90;;;;;;4592162;19;20594;-34
2022/06/26 08:29:11;;;;;;;;;;;21.30;99.90;;;;;;4592058;19;20246;-36
2022/06/26 08:30:42;;;;;;;;;;;21.30;99.90;;;;;;4592247;19;19970;-40
2022/06/26 08:32:13;;;;;;;;;;;21.30;99.90;;;;;;4591881;19;19914;-42
2022/06/26 08:33:44;;;;;;;;;;;21.40;99.90;;;;;;4591781;19;19974;-37
2022/06/26 08:35:15;;;;;;;;;;;21.40;99.90;;;;;;4593494;19;19978;-33
2022/06/26 08:36:46;;;;;;;;;;;21.50;99.90;;;;;;4590526;19;19926;-33
2022/06/26 08:38:17;;;;;;;;;;;21.50;99.90;;;;;;4592392;19;19911;-38
2022/06/26 08:39:47;;;;;;;;;;;21.60;99.90;;;;;;4593436;19;19911;-40
2022/06/26 08:41:21;;;;;;;;;;;21.60;99.90;;;;;;4590659;19;19986;-32
2022/06/26 08:42:53;;;;;;;;;;;21.60;99.90;;;;;;4591257;19;19915;-39
2022/06/26 08:44:24;;;;;;;;;;;21.60;99.90;;;;;;4591864;19;19922;-40
2022/06/26 08:45:56;;;;;;;;;;;21.60;99.90;;;;;;4591754;19;19923;-37
2022/06/26 08:47:28;;;;;;;;;;;21.70;99.90;;;;;;4591113;19;19918;-35
2022/06/26 08:48:59;;;;;;;;;;;21.70;99.90;;;;;;4589330;19;19934;-31
2022/06/26 08:50:30;;;;;;;;;;;21.70;99.90;;;;;;4589420;19;19980;-34
2022/06/26 08:52:01;;;;;;;;;;;21.70;99.90;;;;;;4589280;19;19918;-33
2022/06/26 08:53:32;;;;;;;;;;;21.70;99.90;;;;;;4590093;19;19915;-38
2022/06/26 08:55:04;;;;;;;;;;;21.70;99.90;;;;;;4591026;19;19937;-37
2022/06/26 08:56:36;;;;;;;;;;;21.70;99.90;;;;;;4590909;19;19919;-35